createdAt,value
2022-11-04T00:00:05.026Z,99397.9921875
2022-11-04T00:01:05.023Z,99395.5546875
2022-11-04T00:02:05.065Z,99400.0625
2022-11-04T00:03:05.310Z,99404.94140625
2022-11-04T00:04:05.210Z,99408.73046875
2022-11-04T00:05:04.968Z,99408.5234375
2022-11-04T00:06:04.996Z,99413.42578125
2022-11-04T00:07:05.005Z,99416.3359375
2022-11-04T00:08:04.860Z,99418.796875
2022-11-04T00:09:11.244Z,99421.703125
2022-11-04T00:10:05.027Z,99428.65234375
2022-11-04T00:11:04.848Z,99430.06640625
2022-11-04T00:12:04.871Z,99434.921875
2022-11-04T00:13:05.681Z,99437.859375
2022-11-04T00:14:05.202Z,99442.1015625
2022-11-04T00:15:04.933Z,99448.9296875
2022-11-04T00:16:04.852Z,99452.41796875
2022-11-04T00:17:04.961Z,99452.08203125
2022-11-04T00:18:04.850Z,99453.3359375
2022-11-04T00:19:05.298Z,99456.26953125
2022-11-04T00:20:08.009Z,99454.765625
2022-11-04T00:21:05.007Z,99452.3046875
2022-11-04T00:22:05.001Z,99456.609375
2022-11-04T00:23:05.213Z,99455.34765625
2022-11-04T00:24:05.206Z,99452.98046875
2022-11-04T00:25:04.955Z,99456.52734375
2022-11-04T00:26:04.999Z,99456.09765625
2022-11-04T00:27:05.033Z,99455.07421875
2022-11-04T00:28:05.637Z,99452.93359375
2022-11-04T00:29:05.209Z,99452.26171875
2022-11-04T00:30:04.976Z,99449.453125
2022-11-04T00:31:04.869Z,99449.10546875
2022-11-04T00:32:04.885Z,99447.88671875
2022-11-04T00:33:04.981Z,99451.671875
2022-11-04T00:34:05.198Z,99447.52734375
2022-11-04T00:35:05.027Z,99442.4765625
2022-11-04T00:36:07.843Z,99445.39453125
2022-11-04T00:37:04.948Z,99444.5703125
2022-11-04T00:38:05.079Z,99443.3203125
2022-11-04T00:39:05.279Z,99450.62109375
2022-11-04T00:40:05.012Z,99445.66015625
2022-11-04T00:41:04.983Z,99445.1796875
2022-11-04T00:42:04.913Z,99440.77734375
2022-11-04T00:43:05.278Z,99443.0859375
2022-11-04T00:44:05.328Z,99436.01171875
2022-11-04T00:45:04.999Z,99442.1171875
2022-11-04T00:46:04.974Z,99433.8359375
2022-11-04T00:47:08.000Z,99432.359375
2022-11-04T00:48:05.152Z,99426.73046875
2022-11-04T00:49:05.279Z,99428.98828125
2022-11-04T00:50:04.914Z,99428.125
2022-11-04T00:51:04.954Z,99425.94921875
2022-11-04T00:52:04.865Z,99430.90234375
2022-11-04T00:53:05.258Z,99432.41015625
2022-11-04T00:54:05.277Z,99430.3203125
2022-11-04T00:55:04.945Z,99430.1953125
2022-11-04T00:56:04.841Z,99429.71484375
2022-11-04T00:57:04.841Z,99428.76953125
2022-11-04T00:58:10.961Z,99430.63671875
2022-11-04T00:59:07.030Z,99432.3984375
2022-11-04T01:00:04.900Z,99431.375
2022-11-04T01:01:05.023Z,99438.79296875
2022-11-04T01:02:05.085Z,99436.86328125
2022-11-04T01:03:05.087Z,99435.171875
2022-11-04T01:04:05.216Z,99433.92578125
2022-11-04T01:05:04.843Z,99435.015625
2022-11-04T01:06:04.959Z,99431.9609375
2022-11-04T01:07:05.019Z,99431.8359375
2022-11-04T01:08:04.977Z,99428.65625
2022-11-04T01:09:10.922Z,99434.53515625
2022-11-04T01:10:04.952Z,99431.65234375
2022-11-04T01:11:04.844Z,99433.2109375
2022-11-04T01:12:04.882Z,99437.8359375
2022-11-04T01:13:05.510Z,99442.90234375
2022-11-04T01:14:05.207Z,99450.96484375
2022-11-04T01:15:04.946Z,99445.23046875
2022-11-04T01:16:04.881Z,99454.484375
2022-11-04T01:17:04.946Z,99458.08203125
2022-11-04T01:18:05.183Z,99458.0859375
2022-11-04T01:19:05.285Z,99457.08203125
2022-11-04T01:20:07.999Z,99453.40234375
2022-11-04T01:21:04.918Z,99453.24609375
2022-11-04T01:22:04.840Z,99451.83203125
2022-11-04T01:23:04.842Z,99457.35546875
2022-11-04T01:24:05.277Z,99455.734375
2022-11-04T01:25:05.063Z,99458.12890625
2022-11-04T01:26:04.977Z,99454.4453125
2022-11-04T01:27:04.950Z,99454.125
2022-11-04T01:28:05.344Z,99455.3359375
2022-11-04T01:29:05.208Z,99455.44140625
2022-11-04T01:30:05.003Z,99463.71875
2022-11-04T01:31:07.993Z,99475.37890625
2022-11-04T01:32:05.054Z,99476.765625
2022-11-04T01:33:04.988Z,99477.81640625
2022-11-04T01:34:05.268Z,99478.4296875
2022-11-04T01:35:04.929Z,99479.1875
2022-11-04T01:36:04.969Z,99486.03125
2022-11-04T01:37:04.862Z,99489.6328125
2022-11-04T01:38:05.135Z,99495.6328125
2022-11-04T01:39:05.274Z,99490.3125
2022-11-04T01:40:04.924Z,99487.6640625
2022-11-04T01:41:04.843Z,99490.00390625
2022-11-04T01:42:07.796Z,99487.6328125
2022-11-04T01:43:05.298Z,99488.03125
2022-11-04T01:44:05.202Z,99484.015625
2022-11-04T01:45:04.988Z,99484.98828125
2022-11-04T01:46:04.849Z,99488.55859375
2022-11-04T01:47:04.853Z,99486.85546875
2022-11-04T01:48:04.860Z,99487.8828125
2022-11-04T01:49:05.277Z,99485.02734375
2022-11-04T01:50:05.058Z,99484.234375
2022-11-04T01:51:05.038Z,99488.01171875
2022-11-04T01:52:05.054Z,99481.44140625
2022-11-04T01:53:08.224Z,99485.046875
2022-11-04T01:54:05.208Z,99485.80859375
2022-11-04T01:55:04.916Z,99487.65625
2022-11-04T01:56:04.851Z,99486.05859375
2022-11-04T01:57:04.966Z,99488.15625
2022-11-04T01:58:05.221Z,99483.50390625
2022-11-04T01:59:05.200Z,99485.9453125
2022-11-04T02:00:04.917Z,99485.0625
2022-11-04T02:01:05.001Z,99487.76953125
2022-11-04T02:02:05.200Z,99490.171875
2022-11-04T02:03:05.078Z,99499.3359375
2022-11-04T02:04:11.152Z,99496.890625
2022-11-04T02:05:04.868Z,99496.84765625
2022-11-04T02:06:04.873Z,99502.3046875
2022-11-04T02:07:04.833Z,99503.6171875
2022-11-04T02:08:04.991Z,99503.06640625
2022-11-04T02:09:05.254Z,99505.11328125
2022-11-04T02:10:04.845Z,99502.61328125
2022-11-04T02:11:04.937Z,99504.16015625
2022-11-04T02:12:05.035Z,99496.19140625
2022-11-04T02:13:05.561Z,99493.09375
2022-11-04T02:14:05.201Z,99487.18359375
2022-11-04T02:15:08.116Z,99488.28515625
2022-11-04T02:16:05.069Z,99488.953125
2022-11-04T02:17:05.039Z,99489.33984375
2022-11-04T02:18:04.830Z,99491.13671875
2022-11-04T02:19:05.292Z,99488.109375
2022-11-04T02:20:05.052Z,99483.4453125
2022-11-04T02:21:04.971Z,99485.80859375
2022-11-04T02:22:04.833Z,99487.59765625
2022-11-04T02:23:04.988Z,99490.03125
2022-11-04T02:24:05.216Z,99496.15625
2022-11-04T02:25:04.941Z,99494.36328125
2022-11-04T02:26:07.850Z,99493.52734375
2022-11-04T02:27:04.925Z,99493.61328125
2022-11-04T02:28:05.281Z,99495.89453125
2022-11-04T02:29:05.206Z,99492.890625
2022-11-04T02:30:04.954Z,99494.58984375
2022-11-04T02:31:04.824Z,99499.7734375
2022-11-04T02:32:04.845Z,99498.375
2022-11-04T02:33:04.976Z,99492.32421875
2022-11-04T02:34:05.206Z,99489.76171875
2022-11-04T02:35:05.044Z,99491.50390625
2022-11-04T02:36:05.003Z,99492.234375
2022-11-04T02:37:07.991Z,99499.30078125
2022-11-04T02:38:05.024Z,99499.49609375
2022-11-04T02:39:05.213Z,99500.29296875
2022-11-04T02:40:04.955Z,99498.515625
2022-11-04T02:41:04.869Z,99498.84765625
2022-11-04T02:42:04.933Z,99500.23046875
2022-11-04T02:43:05.241Z,99500.69921875
2022-11-04T02:44:05.280Z,99505.7109375
2022-11-04T02:45:04.913Z,99502.04296875
2022-11-04T02:46:04.978Z,99503.375
2022-11-04T02:47:05.039Z,99503.1796875
2022-11-04T02:48:07.845Z,99503.01953125
2022-11-04T02:49:05.209Z,99503.40625
2022-11-04T02:50:05.040Z,99504.6640625
2022-11-04T02:51:04.943Z,99505.2109375
2022-11-04T02:52:04.845Z,99510.29296875
2022-11-04T02:53:04.989Z,99510.62109375
2022-11-04T02:54:05.202Z,99511.9921875
2022-11-04T02:55:04.970Z,99517.17578125
2022-11-04T02:56:05.038Z,99521.5
2022-11-04T02:57:04.860Z,99523.42578125
2022-11-04T02:58:05.280Z,99525.3125
2022-11-04T02:59:10.896Z,99523.0390625
2022-11-04T03:00:05.021Z,99522.6796875
2022-11-04T03:01:04.959Z,99527.28125
2022-11-04T03:02:04.970Z,99529.06640625
2022-11-04T03:03:04.984Z,99530.15625
2022-11-04T03:04:05.280Z,99528.1484375
2022-11-04T03:05:04.864Z,99532.5234375
2022-11-04T03:06:04.989Z,99535.14453125
2022-11-04T03:07:05.084Z,99534.828125
2022-11-04T03:08:05.023Z,99532.9375
2022-11-04T03:09:05.203Z,99530.63671875
2022-11-04T03:10:07.966Z,99532.01953125
2022-11-04T03:11:05.027Z,99527.99609375
2022-11-04T03:12:04.965Z,99527.6875
2022-11-04T03:13:04.879Z,99527.28515625
2022-11-04T03:14:04.933Z,99525.03515625
2022-11-04T03:15:04.986Z,99523.3125
2022-11-04T03:16:04.929Z,99525.6171875
2022-11-04T03:17:04.955Z,99528.4140625
2022-11-04T03:18:05.150Z,99522.8515625
2022-11-04T03:19:04.987Z,99522.95703125
2022-11-04T03:20:05.026Z,99521.375
2022-11-04T03:21:07.959Z,99522.1328125
2022-11-04T03:22:05.064Z,99518.83203125
2022-11-04T03:23:04.920Z,99525.85546875
2022-11-04T03:24:05.277Z,99521.23828125
2022-11-04T03:25:04.924Z,99530.30078125
2022-11-04T03:26:04.849Z,99534.6015625
2022-11-04T03:27:04.850Z,99537.65234375
2022-11-04T03:28:05.413Z,99535.51171875
2022-11-04T03:29:05.204Z,99535.80078125
2022-11-04T03:30:04.967Z,99538.171875
2022-11-04T03:31:04.843Z,99538.07421875
2022-11-04T03:32:07.865Z,99539.16796875
2022-11-04T03:33:04.904Z,99541.95703125
2022-11-04T03:34:05.284Z,99547.3828125
2022-11-04T03:35:05.015Z,99560.703125
2022-11-04T03:36:05.256Z,99569.2421875
2022-11-04T03:37:05.050Z,99579.7578125
2022-11-04T03:38:04.855Z,99581.83203125
2022-11-04T03:39:05.281Z,99582.1328125
2022-11-04T03:40:04.954Z,99566.85546875
2022-11-04T03:41:04.916Z,99561.171875
2022-11-04T03:42:04.902Z,99554.25390625
2022-11-04T03:43:08.245Z,99556.67578125
2022-11-04T03:44:05.057Z,99555.7109375
2022-11-04T03:45:04.895Z,99564.359375
2022-11-04T03:46:04.859Z,99564.51171875
2022-11-04T03:47:04.961Z,99567.97265625
2022-11-04T03:48:04.917Z,99571.828125
2022-11-04T03:49:05.238Z,99566.6171875
2022-11-04T03:50:04.906Z,99571.17578125
2022-11-04T03:51:04.839Z,99572.3828125
2022-11-04T03:52:04.856Z,99573.1640625
2022-11-04T03:53:04.911Z,99577.35546875
2022-11-04T03:54:08.226Z,99580.58203125
2022-11-04T03:55:04.936Z,99583.34375
2022-11-04T03:56:04.945Z,99584.45703125
2022-11-04T03:57:05.032Z,99586.30859375
2022-11-04T03:58:05.429Z,99582.8828125
2022-11-04T03:59:05.208Z,99580.50390625
2022-11-04T04:00:04.890Z,99577.18359375
2022-11-04T04:01:04.884Z,99577.6171875
2022-11-04T04:02:04.985Z,99576.3671875
2022-11-04T04:03:04.939Z,99582.5078125
2022-11-04T04:04:05.282Z,99574.671875
2022-11-04T04:05:07.889Z,99572.625
2022-11-04T04:06:04.933Z,99577.09375
2022-11-04T04:07:04.844Z,99581.015625
2022-11-04T04:08:04.855Z,99580.8359375
2022-11-04T04:09:05.283Z,99585.1640625
2022-11-04T04:10:05.034Z,99592.78515625
2022-11-04T04:11:04.942Z,99595.7265625
2022-11-04T04:12:04.870Z,99599.2734375
2022-11-04T04:13:05.278Z,99600.27734375
2022-11-04T04:14:05.272Z,99601.65625
2022-11-04T04:15:04.955Z,99593.5390625
2022-11-04T04:16:07.984Z,99594.03125
2022-11-04T04:17:05.108Z,99593.1015625
2022-11-04T04:18:05.069Z,99593.7109375
2022-11-04T04:19:05.280Z,99592.25
2022-11-04T04:20:04.883Z,99597.1484375
2022-11-04T04:21:04.899Z,99599.69921875
2022-11-04T04:22:04.863Z,99600.47265625
2022-11-04T04:23:04.952Z,99599.171875
2022-11-04T04:24:05.199Z,99595.90625
2022-11-04T04:25:05.011Z,99592.296875
2022-11-04T04:26:04.845Z,99591.91796875
2022-11-04T04:27:07.969Z,99589.66015625
2022-11-04T04:28:05.227Z,99586.19921875
2022-11-04T04:29:05.202Z,99587.28125
2022-11-04T04:30:04.885Z,99588.73046875
2022-11-04T04:31:04.856Z,99591.39453125
2022-11-04T04:32:04.989Z,99598.3203125
2022-11-04T04:33:04.848Z,99605.98828125
2022-11-04T04:34:05.278Z,99610.01953125
2022-11-04T04:35:04.956Z,99612.1484375
2022-11-04T04:36:04.946Z,99613.328125
2022-11-04T04:37:05.028Z,99614.07421875
2022-11-04T04:38:08.142Z,99612.39453125
2022-11-04T04:39:05.202Z,99613.80859375
2022-11-04T04:40:04.925Z,99613.15234375
2022-11-04T04:41:04.969Z,99614.7421875
2022-11-04T04:42:04.860Z,99608.3984375
2022-11-04T04:43:05.419Z,99605.95703125
2022-11-04T04:44:05.206Z,99603.6484375
2022-11-04T04:45:04.820Z,99602.23828125
2022-11-04T04:46:04.971Z,99601.78125
2022-11-04T04:47:05.023Z,99603.1015625
2022-11-04T04:48:04.880Z,99607.1875
2022-11-04T04:49:10.896Z,99604.6640625
2022-11-04T04:50:04.903Z,99608.6015625
2022-11-04T04:51:04.853Z,99611.203125
2022-11-04T04:52:04.849Z,99611.8359375
2022-11-04T04:53:04.832Z,99609.453125
2022-11-04T04:54:05.270Z,99609.078125
2022-11-04T04:55:04.841Z,99611.63671875
2022-11-04T04:56:04.954Z,99611.37890625
2022-11-04T04:57:05.031Z,99609.078125
2022-11-04T04:58:05.201Z,99602.52734375
2022-11-04T04:59:05.201Z,99596.9609375
2022-11-04T05:00:07.935Z,99596.0703125
2022-11-04T05:01:05.090Z,99592.5078125
2022-11-04T05:02:05.061Z,99589.7890625
2022-11-04T05:03:04.965Z,99586.0625
2022-11-04T05:04:05.212Z,99592.91796875
2022-11-04T05:05:05.112Z,99593.46875
2022-11-04T05:06:04.942Z,99592.671875
2022-11-04T05:07:04.977Z,99597.87890625
2022-11-04T05:08:04.947Z,99600.625
2022-11-04T05:09:05.274Z,99601.46875
2022-11-04T05:10:04.939Z,99600.0390625
2022-11-04T05:11:07.846Z,99599.2265625
2022-11-04T05:12:04.901Z,99606.06640625
2022-11-04T05:13:05.280Z,99605.0390625
2022-11-04T05:14:05.211Z,99601.5234375
2022-11-04T05:15:04.898Z,99602.84375
2022-11-04T05:16:04.843Z,99604
2022-11-04T05:17:04.995Z,99606.8828125
2022-11-04T05:18:04.845Z,99603.5
2022-11-04T05:19:04.964Z,99597.6328125
2022-11-04T05:20:04.949Z,99597.12109375
2022-11-04T05:21:04.972Z,99590.4765625
2022-11-04T05:22:07.950Z,99588.625
2022-11-04T05:23:05.038Z,99586.1796875
2022-11-04T05:24:05.048Z,99587.5625
2022-11-04T05:25:04.920Z,99586.98828125
2022-11-04T05:26:04.958Z,99593.17578125
2022-11-04T05:27:04.920Z,99597.15625
2022-11-04T05:28:05.291Z,99599.15234375
2022-11-04T05:29:05.326Z,99603.07421875
2022-11-04T05:30:04.923Z,99604.62109375
2022-11-04T05:31:04.844Z,99606.98046875
2022-11-04T05:32:04.857Z,99611.27734375
2022-11-04T05:33:08.231Z,99613.28515625
2022-11-04T05:34:05.214Z,99615.50390625
2022-11-04T05:35:05.037Z,99612.1171875
2022-11-04T05:36:05.057Z,99614.6953125
2022-11-04T05:37:04.917Z,99615.1875
2022-11-04T05:38:04.827Z,99617.43359375
2022-11-04T05:39:05.210Z,99614.08984375
2022-11-04T05:40:04.948Z,99608.765625
2022-11-04T05:41:05.005Z,99607.515625
2022-11-04T05:42:04.928Z,99604.9921875
2022-11-04T05:43:05.363Z,99599.9609375
2022-11-04T05:44:10.874Z,99603.01953125
2022-11-04T05:45:05.154Z,99599.97265625
2022-11-04T05:46:05.058Z,99593.546875
2022-11-04T05:47:04.940Z,99589.7421875
2022-11-04T05:48:04.990Z,99587.078125
2022-11-04T05:49:05.050Z,99586.578125
2022-11-04T05:50:05.208Z,99587.51171875
2022-11-04T05:51:04.947Z,99587.7578125
2022-11-04T05:52:04.916Z,99593.0703125
2022-11-04T05:53:04.849Z,99594.515625
2022-11-04T05:54:05.278Z,99596.01171875
2022-11-04T05:55:07.959Z,99592.859375
2022-11-04T05:56:04.952Z,99596.140625
2022-11-04T05:57:04.853Z,99597.84375
2022-11-04T05:58:05.289Z,99595.57421875
2022-11-04T05:59:05.202Z,99598.65625
2022-11-04T06:00:04.893Z,99597.7109375
2022-11-04T06:01:04.920Z,99596.4453125
2022-11-04T06:02:05.055Z,99596.8984375
2022-11-04T06:03:04.967Z,99599.17578125
2022-11-04T06:04:05.402Z,99596.953125
2022-11-04T06:05:05.002Z,99592.3125
2022-11-04T06:06:07.866Z,99587.65625
2022-11-04T06:07:05.088Z,99588.53515625
2022-11-04T06:08:05.031Z,99587.453125
2022-11-04T06:09:04.941Z,99590.03125
2022-11-04T06:10:05.206Z,99591.28125
2022-11-04T06:11:04.898Z,99589.83984375
2022-11-04T06:12:05.037Z,99585.71875
2022-11-04T06:13:05.273Z,99582.890625
2022-11-04T06:14:05.285Z,99584.4140625
2022-11-04T06:15:04.913Z,99579.98828125
2022-11-04T06:16:04.912Z,99582.3203125
2022-11-04T06:17:08.046Z,99583.87109375
2022-11-04T06:18:05.253Z,99582.33203125
2022-11-04T06:19:08.675Z,99583.67578125
2022-11-04T06:20:04.986Z,99586.25
2022-11-04T06:21:04.849Z,99586.8359375
2022-11-04T06:22:04.848Z,99584.06640625
2022-11-04T06:23:04.847Z,99579.86328125
2022-11-04T06:24:05.281Z,99581.171875
2022-11-04T06:25:05.045Z,99580.3125
2022-11-04T06:26:04.971Z,99581.78515625
2022-11-04T06:27:04.967Z,99583.2578125
2022-11-04T06:28:11.266Z,99588.30078125
2022-11-04T06:29:05.200Z,99589.69921875
2022-11-04T06:30:04.926Z,99587.05078125
2022-11-04T06:31:04.959Z,99592.15234375
2022-11-04T06:32:05.060Z,99591.08984375
2022-11-04T06:33:04.943Z,99593.39453125
2022-11-04T06:34:05.436Z,99592.9453125
2022-11-04T06:35:04.931Z,99597.39453125
2022-11-04T06:36:05.023Z,99599.84375
2022-11-04T06:37:04.984Z,99602.3203125
2022-11-04T06:38:04.814Z,99601.24609375
2022-11-04T06:39:10.918Z,99602.12109375
2022-11-04T06:40:05.024Z,99605.62109375
2022-11-04T06:42:14.606Z,99613.17578125
2022-11-04T06:43:14.998Z,99618.36328125
2022-11-04T06:44:14.909Z,99622.546875
2022-11-04T06:45:14.713Z,99632.83984375
2022-11-04T06:46:14.604Z,99641.40234375
2022-11-04T06:47:23.564Z,99642.08984375
2022-11-04T06:48:14.913Z,99642.7265625
2022-11-04T06:49:14.774Z,99642.75390625
2022-11-04T06:50:14.604Z,99639.28125
2022-11-04T06:51:14.682Z,99644.453125
2022-11-04T06:52:14.615Z,99642.03125
2022-11-04T06:53:20.654Z,99640.01171875
2022-11-04T06:54:14.714Z,99637.5234375
2022-11-04T06:55:14.562Z,99641.73046875
2022-11-04T06:56:14.678Z,99638.9296875
2022-11-04T06:57:14.734Z,99640.84375
2022-11-04T06:58:15.070Z,99640.16015625
2022-11-04T06:59:14.646Z,99642.1484375
2022-11-04T07:00:14.660Z,99643.77734375
2022-11-04T07:01:20.262Z,99645.375
2022-11-04T07:02:14.846Z,99643.49609375
2022-11-04T07:03:14.981Z,99643.27734375
2022-11-04T07:04:17.758Z,99641.6953125
2022-11-04T07:05:14.638Z,99643.203125
2022-11-04T07:06:14.511Z,99645.4375
2022-11-04T07:07:14.786Z,99640.08984375
2022-11-04T07:08:14.909Z,99640.7421875
2022-11-04T07:09:14.533Z,99638.07421875
2022-11-04T07:10:14.637Z,99641.1640625
2022-11-04T07:11:14.553Z,99644.23828125
2022-11-04T07:12:14.654Z,99644.0546875
2022-11-04T07:13:14.899Z,99644.20703125
2022-11-04T07:14:14.646Z,99642.828125
2022-11-04T07:15:18.594Z,99643.078125
2022-11-04T07:16:14.747Z,99640.5546875
2022-11-04T07:17:14.742Z,99640.6875
2022-11-04T07:18:14.909Z,99640.984375
2022-11-04T07:19:14.721Z,99644.234375
2022-11-04T07:20:14.642Z,99646.19921875
2022-11-04T07:21:14.987Z,99648.77734375
2022-11-04T07:22:14.550Z,99648.61328125
2022-11-04T07:23:14.982Z,99653.80859375
2022-11-04T07:24:14.758Z,99656.90625
2022-11-04T07:25:14.610Z,99661.21484375
2022-11-04T07:26:17.539Z,99658.30859375
2022-11-04T07:27:14.605Z,99665.3125
2022-11-04T07:28:15.028Z,99663.71875
2022-11-04T07:29:14.637Z,99662.734375
2022-11-04T07:30:14.550Z,99658.7265625
2022-11-04T07:31:14.521Z,99664.5390625
2022-11-04T07:32:14.639Z,99668.54296875
2022-11-04T07:33:14.981Z,99663.77734375
2022-11-04T07:34:14.710Z,99663.5078125
2022-11-04T07:35:14.677Z,99661.21484375
2022-11-04T07:36:14.566Z,99659.09375
2022-11-04T07:37:17.674Z,99660.0625
2022-11-04T07:38:14.912Z,99661.1484375
2022-11-04T07:39:14.717Z,99663.10546875
2022-11-04T07:40:14.743Z,99663.76171875
2022-11-04T07:41:14.513Z,99668.40625
2022-11-04T07:42:14.545Z,99662.5078125
2022-11-04T07:43:14.906Z,99663.8359375
2022-11-04T07:44:14.617Z,99661.7265625
2022-11-04T07:45:14.528Z,99661.7890625
2022-11-04T07:46:14.670Z,99659.98046875
2022-11-04T07:47:14.719Z,99664.03515625
2022-11-04T07:48:20.658Z,99663.03515625
2022-11-04T07:49:14.694Z,99667.8125
2022-11-04T07:50:14.642Z,99669.8046875
2022-11-04T07:51:14.539Z,99674.33203125
2022-11-04T07:52:14.539Z,99675.31640625
2022-11-04T07:53:14.984Z,99673.3046875
2022-11-04T07:54:14.545Z,99675.8984375
2022-11-04T07:55:14.673Z,99679.02734375
2022-11-04T07:56:14.536Z,99678.47265625
2022-11-04T07:57:14.563Z,99677.01953125
2022-11-04T07:58:14.971Z,99676.671875
2022-11-04T07:59:17.652Z,99674.4765625
2022-11-04T08:00:14.735Z,99675.125
2022-11-04T08:01:14.744Z,99677.55078125
2022-11-04T08:02:14.678Z,99678.72265625
2022-11-04T08:03:15.014Z,99676.0234375
2022-11-04T08:04:14.643Z,99674.72265625
2022-11-04T08:05:14.503Z,99676.83984375
2022-11-04T08:06:14.649Z,99675.26171875
2022-11-04T08:07:14.656Z,99674.97265625
2022-11-04T08:08:14.910Z,99673.74609375
2022-11-04T08:09:14.853Z,99677.5078125
2022-11-04T08:10:17.627Z,99673.75390625
2022-11-04T08:11:17.698Z,99675.08984375
2022-11-04T08:12:14.545Z,99674.3203125
2022-11-04T08:13:14.975Z,99677.8203125
2022-11-04T08:14:14.695Z,99683.44921875
2022-11-04T08:15:14.693Z,99683.453125
2022-11-04T08:16:14.522Z,99682.24609375
2022-11-04T08:17:14.652Z,99685.87109375
2022-11-04T08:18:14.914Z,99686.9453125
2022-11-04T08:19:14.759Z,99686.58984375
2022-11-04T08:20:14.743Z,99687.90234375
2022-11-04T08:21:17.687Z,99688.359375
2022-11-04T08:22:14.662Z,99684.36328125
2022-11-04T08:23:14.987Z,99686.50390625
2022-11-04T08:24:14.754Z,99683.85546875
2022-11-04T08:25:14.635Z,99682.046875
2022-11-04T08:26:14.540Z,99680.6796875
2022-11-04T08:27:14.685Z,99676.1171875
2022-11-04T08:28:14.979Z,99677.18359375
2022-11-04T08:29:14.713Z,99676.203125
2022-11-04T08:30:14.673Z,99676.27734375
2022-11-04T08:31:14.727Z,99674.8046875
2022-11-04T08:32:17.621Z,99682.16796875
2022-11-04T08:33:14.911Z,99681.53515625
2022-11-04T08:34:14.751Z,99680.6484375
2022-11-04T08:35:14.703Z,99679.81640625
2022-11-04T08:36:14.644Z,99677.73046875
2022-11-04T08:37:14.646Z,99677.48828125
2022-11-04T08:38:14.902Z,99673.33984375
2022-11-04T08:39:14.659Z,99672.0703125
2022-11-04T08:40:14.738Z,99674.48046875
2022-11-04T08:41:14.690Z,99670.92578125
2022-11-04T08:42:14.598Z,99673.96875
2022-11-04T08:43:20.527Z,99671.58984375
2022-11-04T08:44:14.705Z,99669.98828125
2022-11-04T08:45:14.712Z,99670.63671875
2022-11-04T08:46:14.668Z,99668.65234375
2022-11-04T08:47:14.719Z,99667.6015625
2022-11-04T08:48:15.002Z,99667.80859375
2022-11-04T08:49:19.664Z,99669.71875
2022-11-04T08:50:14.615Z,99666.72265625
2022-11-04T08:51:14.613Z,99669.10546875
2022-11-04T08:52:14.655Z,99666.2265625
2022-11-04T08:53:14.908Z,99667.68359375
2022-11-04T08:54:17.575Z,99669.90625
2022-11-04T08:55:14.630Z,99665.265625
2022-11-04T08:56:14.523Z,99670.2109375
2022-11-04T08:57:14.548Z,99671.68359375
2022-11-04T08:58:14.978Z,99675.37890625
2022-11-04T08:59:14.618Z,99676.65625
2022-11-04T09:00:14.619Z,99675.78515625
2022-11-04T09:01:14.635Z,99675.44921875
2022-11-04T09:02:14.665Z,99675.4140625
2022-11-04T09:03:14.977Z,99674.69140625
2022-11-04T09:04:14.841Z,99671.1484375
2022-11-04T09:05:17.671Z,99672.125
2022-11-04T09:06:14.741Z,99670.98046875
2022-11-04T09:07:14.617Z,99673.609375
2022-11-04T09:08:14.988Z,99672.1171875
2022-11-04T09:09:14.721Z,99674.39453125
2022-11-04T09:10:14.614Z,99674.921875
2022-11-04T09:11:14.511Z,99680.2421875
2022-11-04T09:12:14.562Z,99679.921875
2022-11-04T09:13:14.978Z,99677.12890625
2022-11-04T09:14:14.633Z,99682.74609375
2022-11-04T09:15:14.584Z,99681.70703125
2022-11-04T09:16:17.627Z,99685.890625
2022-11-04T09:17:14.708Z,99685.34765625
2022-11-04T09:18:15.031Z,99687.97265625
2022-11-04T09:19:14.757Z,99687.4765625
2022-11-04T09:20:14.629Z,99684.9609375
2022-11-04T09:21:14.543Z,99682.22265625
2022-11-04T09:22:14.533Z,99680.41796875
2022-11-04T09:23:14.981Z,99679.48046875
2022-11-04T09:24:14.625Z,99683.5703125
2022-11-04T09:25:14.638Z,99685.09765625
2022-11-04T09:26:14.525Z,99687.8359375
2022-11-04T09:27:17.644Z,99683.75390625
2022-11-04T09:28:14.908Z,99682.69921875
2022-11-04T09:29:14.768Z,99681.52734375
2022-11-04T09:30:14.750Z,99683.4296875
2022-11-04T09:31:14.806Z,99684.13671875
2022-11-04T09:32:14.575Z,99682.09375
2022-11-04T09:33:14.912Z,99682.68359375
2022-11-04T09:34:14.547Z,99679.05078125
2022-11-04T09:35:14.614Z,99681.4375
2022-11-04T09:36:14.687Z,99683.234375
2022-11-04T09:37:14.596Z,99681.10546875
2022-11-04T09:38:20.614Z,99682.203125
2022-11-04T09:39:14.749Z,99684.9765625
2022-11-04T09:40:14.609Z,99686.01953125
2022-11-04T09:41:14.502Z,99685.51953125
2022-11-04T09:42:14.516Z,99682.1640625
2022-11-04T09:43:14.994Z,99680.85546875
2022-11-04T09:44:14.610Z,99676.3203125
2022-11-04T09:45:21.593Z,99676.0234375
2022-11-04T09:46:14.537Z,99674.37109375
2022-11-04T09:47:20.731Z,99673.05078125
2022-11-04T09:48:14.976Z,99673.5234375
2022-11-04T09:49:17.555Z,99677.12890625
2022-11-04T09:50:14.698Z,99677.8359375
2022-11-04T09:51:32.464Z,99678.58203125
2022-11-04T09:52:14.745Z,99685.38671875
2022-11-04T09:53:14.903Z,99686.40625
2022-11-04T09:54:14.744Z,99687.49609375
2022-11-04T09:55:14.540Z,99692.53125
2022-11-04T09:56:14.633Z,99689.73828125
2022-11-04T09:57:14.651Z,99688.90625
2022-11-04T09:58:14.953Z,99691.58203125
2022-11-04T09:59:14.748Z,99697.20703125
2022-11-04T10:00:17.750Z,99697.34765625
2022-11-04T10:01:14.865Z,99696.28125
2022-11-04T10:02:20.730Z,99698.515625
2022-11-04T10:03:14.975Z,99705.68359375
2022-11-04T10:04:15.229Z,99705.26171875
2022-11-04T10:05:14.706Z,99704.09375
2022-11-04T10:06:14.520Z,99706.46875
2022-11-04T10:07:14.646Z,99704.20703125
2022-11-04T10:08:14.908Z,99705.5
2022-11-04T10:09:14.526Z,99705.5625
2022-11-04T10:10:14.627Z,99706.453125
2022-11-04T10:11:17.895Z,99708.5234375
2022-11-04T10:12:15.962Z,99705.87890625
2022-11-04T10:13:14.904Z,99700.66796875
2022-11-04T10:14:14.658Z,99703.5390625
2022-11-04T10:15:14.554Z,99700.02734375